createdAt,value
2022-10-02T00:00:53.003Z,1.83
2022-10-02T00:03:25.959Z,2.25
2022-10-02T00:06:02.997Z,2.00
2022-10-02T00:08:37.399Z,1.90
2022-10-02T00:11:44.149Z,2.42
2022-10-02T00:14:17.970Z,4.65
2022-10-02T00:16:48.559Z,2.33
2022-10-02T00:19:17.641Z,2.97
2022-10-02T00:22:09.448Z,2.95
2022-10-02T00:24:48.210Z,1.98
2022-10-02T00:27:33.347Z,2.03
2022-10-02T00:30:02.274Z,1.92
2022-10-02T00:32:36.003Z,1.73
2022-10-02T00:35:25.172Z,2.13
2022-10-02T00:38:30.382Z,1.77
2022-10-02T00:41:16.986Z,1.77
2022-10-02T00:43:51.520Z,1.48
2022-10-02T00:47:05.081Z,1.52
2022-10-02T00:50:01.348Z,1.83
2022-10-02T00:52:49.596Z,1.70
2022-10-02T00:55:36.546Z,1.88
2022-10-02T00:58:09.126Z,1.70
2022-10-02T01:00:36.134Z,2.03
2022-10-02T01:03:23.750Z,1.75
2022-10-02T01:05:50.675Z,1.67
2022-10-02T01:08:17.435Z,1.95
2022-10-02T01:10:45.009Z,1.40
2022-10-02T01:13:12.247Z,1.98
2022-10-02T01:15:46.340Z,2.10
2022-10-02T01:18:14.735Z,2.15
2022-10-02T01:20:46.820Z,1.95
2022-10-02T01:23:36.680Z,1.42
2022-10-02T01:26:03.653Z,1.60
2022-10-02T01:28:30.792Z,1.90
2022-10-02T01:31:10.381Z,1.90
2022-10-02T01:33:41.563Z,1.77
2022-10-02T01:36:12.665Z,2.00
2022-10-02T01:38:47.358Z,1.90
2022-10-02T01:41:14.029Z,1.85
2022-10-02T01:43:50.360Z,2.45
2022-10-02T01:46:35.411Z,2.60
2022-10-02T01:49:43.282Z,2.30
2022-10-02T01:52:22.305Z,1.95
2022-10-02T01:55:03.799Z,2.25
2022-10-02T01:57:46.845Z,2.22
2022-10-02T02:00:19.397Z,2.05
2022-10-02T02:02:55.818Z,2.13
2022-10-02T02:05:52.265Z,2.10
2022-10-02T02:08:30.523Z,1.85
2022-10-02T02:11:18.911Z,1.70
2022-10-02T02:14:01.956Z,2.20
2022-10-02T02:16:41.714Z,1.90
2022-10-02T02:19:29.671Z,1.60
2022-10-02T02:22:05.725Z,2.15
2022-10-02T02:24:47.828Z,2.75
2022-10-02T02:27:19.888Z,1.98
2022-10-02T02:29:50.275Z,2.10
2022-10-02T02:32:20.546Z,2.42
2022-10-02T02:34:53.905Z,2.17
2022-10-02T02:37:25.456Z,1.90
2022-10-02T02:39:57.978Z,2.20
2022-10-02T02:42:29.026Z,2.20
2022-10-02T02:45:03.244Z,3.05
2022-10-02T02:47:43.259Z,2.30
2022-10-02T02:50:38.873Z,2.53
2022-10-02T02:53:17.257Z,2.30
2022-10-02T02:55:51.399Z,1.80
2022-10-02T02:58:20.534Z,2.08
2022-10-02T03:00:47.425Z,2.58
2022-10-02T03:03:14.629Z,2.75
2022-10-02T03:05:48.013Z,2.15
2022-10-02T03:08:37.535Z,2.40
2022-10-02T03:11:09.966Z,2.17
2022-10-02T03:13:50.720Z,2.17
2022-10-02T03:16:29.075Z,2.42
2022-10-02T03:19:11.060Z,2.35
2022-10-02T03:22:11.788Z,2.10
2022-10-02T03:24:45.282Z,2.45
2022-10-02T03:27:25.386Z,2.33
2022-10-02T03:30:22.064Z,2.20
2022-10-02T03:32:53.708Z,2.45
2022-10-02T03:35:54.226Z,2.83
2022-10-02T03:38:24.849Z,2.60
2022-10-02T03:40:54.469Z,2.03
2022-10-02T03:43:23.680Z,2.37
2022-10-02T03:45:51.667Z,2.72
2022-10-02T03:48:19.105Z,2.10
2022-10-02T03:50:46.156Z,2.78
2022-10-02T03:53:19.317Z,2.00
2022-10-02T03:55:59.026Z,2.60
2022-10-02T03:58:25.878Z,2.13
2022-10-02T04:01:17.561Z,2.03
2022-10-02T04:03:50.967Z,1.95
2022-10-02T04:06:26.693Z,2.58
2022-10-02T04:09:12.375Z,2.20
2022-10-02T04:11:46.235Z,2.15
2022-10-02T04:14:15.789Z,2.55
2022-10-02T04:16:57.601Z,2.27
2022-10-02T04:19:38.160Z,1.90
2022-10-02T04:27:25.966Z,2.00
2022-10-02T04:29:58.202Z,1.93
2022-10-02T04:32:27.512Z,2.25
2022-10-02T04:34:54.588Z,1.70
2022-10-02T04:37:43.815Z,2.28
2022-10-02T04:40:50.245Z,2.20
2022-10-02T04:43:16.895Z,2.00
2022-10-02T04:45:59.084Z,1.90
2022-10-02T04:48:53.539Z,2.05
2022-10-02T04:51:47.648Z,1.75
2022-10-02T04:54:49.275Z,1.52
2022-10-02T04:57:34.969Z,1.65
2022-10-02T05:00:13.450Z,2.00
2022-10-02T05:03:24.490Z,1.88
2022-10-02T05:05:59.048Z,1.70
2022-10-02T05:08:51.016Z,1.65
2022-10-02T05:11:34.941Z,1.88
2022-10-02T05:14:01.563Z,2.03
2022-10-02T05:16:49.228Z,2.00
2022-10-02T05:19:21.672Z,1.90
2022-10-02T05:22:16.399Z,2.00
2022-10-02T05:24:50.831Z,2.38
2022-10-02T05:27:50.172Z,2.78
2022-10-02T05:30:18.872Z,3.60
2022-10-02T05:33:05.268Z,2.40
2022-10-02T05:36:22.467Z,2.33
2022-10-02T05:39:09.043Z,2.30
2022-10-02T05:42:12.019Z,2.17
2022-10-02T05:45:27.191Z,2.38
2022-10-02T05:48:47.988Z,2.30
2022-10-02T05:52:01.745Z,2.47
2022-10-02T05:55:05.759Z,1.80
2022-10-02T05:57:43.528Z,1.98
2022-10-02T06:00:37.760Z,2.00
2022-10-02T06:03:41.532Z,1.73
2022-10-02T06:06:39.687Z,2.10
2022-10-02T06:09:35.338Z,2.03
2022-10-02T06:12:11.158Z,1.80
2022-10-02T06:14:52.617Z,2.05
2022-10-02T06:17:39.943Z,1.63
2022-10-02T06:20:56.892Z,1.77
2022-10-02T06:24:06.654Z,2.30
2022-10-02T06:27:30.685Z,1.70
2022-10-02T06:30:02.529Z,1.95
2022-10-02T06:32:55.769Z,2.17
2022-10-02T06:44:11.240Z,1.92
2022-10-02T06:47:10.492Z,2.60
2022-10-02T06:50:28.962Z,2.20
2022-10-02T07:01:19.778Z,3.13
2022-10-02T07:04:05.217Z,2.05
2022-10-02T07:07:21.724Z,2.20
2022-10-02T07:10:17.227Z,2.35
2022-10-02T07:13:23.921Z,2.53
2022-10-02T07:16:35.009Z,2.45
2022-10-02T07:19:10.885Z,2.58
2022-10-02T07:21:59.212Z,2.45
2022-10-02T07:28:20.432Z,2.00
2022-10-02T07:30:50.006Z,2.75
2022-10-02T07:33:46.045Z,2.70
2022-10-02T07:36:37.017Z,3.05
2022-10-02T07:39:50.560Z,1.92
2022-10-02T07:42:55.527Z,2.05
2022-10-02T07:45:28.032Z,2.22
2022-10-02T07:48:15.650Z,2.30
2022-10-02T07:50:55.173Z,2.10
2022-10-02T07:53:46.797Z,2.57
2022-10-02T07:56:20.207Z,3.00
2022-10-02T07:58:57.298Z,2.50
2022-10-02T08:01:33.337Z,2.20
2022-10-02T08:04:11.266Z,2.97
2022-10-02T08:06:39.086Z,3.00
2022-10-02T08:09:17.827Z,2.40
2022-10-02T08:11:52.995Z,2.53
2022-10-02T08:14:26.915Z,2.40
2022-10-02T08:16:57.013Z,2.53
2022-10-02T08:19:28.127Z,2.95
2022-10-02T08:22:25.929Z,2.63
2022-10-02T08:25:03.032Z,2.03
2022-10-02T08:27:53.831Z,2.53
2022-10-02T08:30:20.681Z,2.25
2022-10-02T08:32:47.990Z,2.67
2022-10-02T08:35:21.024Z,2.72
2022-10-02T08:38:16.303Z,2.42
2022-10-02T08:41:29.427Z,2.40
2022-10-02T08:44:43.619Z,2.75
2022-10-02T08:47:40.576Z,3.03
2022-10-02T08:50:30.300Z,2.58
2022-10-02T08:53:34.940Z,2.83
2022-10-02T08:56:21.960Z,3.30
2022-10-02T08:59:19.057Z,2.63
2022-10-02T09:02:08.276Z,2.25
2022-10-02T09:05:06.974Z,2.60
2022-10-02T09:07:57.979Z,3.05
2022-10-02T09:11:10.609Z,2.65
2022-10-02T09:13:49.944Z,2.65
2022-10-02T09:16:51.403Z,2.53
2022-10-02T09:19:23.968Z,2.65
2022-10-02T09:22:00.702Z,2.55
2022-10-02T09:24:49.092Z,2.35
2022-10-02T09:27:36.804Z,2.33
2022-10-02T09:30:28.362Z,3.20
2022-10-02T09:33:30.394Z,2.45
2022-10-02T09:36:12.048Z,2.42
2022-10-02T09:39:04.120Z,2.15
2022-10-02T09:42:00.757Z,2.25
2022-10-02T09:45:00.985Z,2.63
2022-10-02T09:47:50.355Z,2.25
2022-10-02T09:50:43.859Z,1.98
2022-10-02T09:53:47.433Z,2.30
2022-10-02T09:56:26.594Z,2.53
2022-10-02T09:59:27.563Z,2.65
2022-10-02T10:02:10.163Z,2.58
2022-10-02T10:05:05.210Z,2.85
2022-10-02T10:07:49.022Z,2.35
2022-10-02T10:10:45.856Z,2.70
2022-10-02T10:13:24.613Z,2.47
2022-10-02T10:16:30.318Z,2.30
2022-10-02T10:19:15.794Z,2.13
2022-10-02T10:22:06.783Z,2.60
2022-10-02T10:24:55.347Z,2.05
2022-10-02T10:27:47.369Z,2.50
2022-10-02T10:30:55.358Z,2.45
2022-10-02T10:33:32.615Z,2.30
2022-10-02T10:36:34.315Z,2.83
2022-10-02T10:39:35.979Z,2.22
2022-10-02T10:42:49.991Z,2.80
2022-10-02T10:45:27.036Z,2.00
2022-10-02T10:48:00.544Z,2.58
2022-10-02T10:50:41.414Z,2.28
2022-10-02T10:53:36.968Z,2.40
2022-10-02T10:56:21.793Z,2.13
2022-10-02T10:59:05.089Z,2.35
2022-10-02T11:02:00.684Z,2.25
2022-10-02T11:04:47.661Z,1.67
2022-10-02T11:07:35.069Z,1.85
2022-10-02T11:10:23.271Z,1.95
2022-10-02T11:13:18.375Z,2.50
2022-10-02T11:16:15.874Z,1.83
2022-10-02T11:19:07.012Z,2.00
2022-10-02T11:22:16.210Z,2.05
2022-10-02T11:25:12.498Z,2.20
2022-10-02T11:27:51.622Z,2.08
2022-10-02T11:30:32.986Z,1.90
2022-10-02T11:33:21.671Z,2.33
2022-10-02T11:36:17.053Z,2.45
2022-10-02T11:38:48.697Z,2.65
2022-10-02T11:41:40.091Z,1.88
2022-10-02T11:44:28.560Z,2.55
2022-10-02T11:47:33.215Z,2.53
2022-10-02T11:50:29.208Z,2.17
2022-10-02T11:52:58.723Z,2.08
2022-10-02T11:55:33.329Z,2.27
2022-10-02T11:58:21.558Z,2.10
2022-10-02T12:01:21.968Z,2.53
2022-10-02T12:04:06.550Z,2.03
2022-10-02T12:07:00.459Z,2.28
2022-10-02T12:09:50.565Z,3.33
2022-10-02T12:12:42.033Z,2.50
2022-10-02T12:15:30.422Z,2.33
2022-10-02T12:18:31.830Z,2.35
2022-10-02T12:21:46.727Z,2.55
2022-10-02T12:24:34.583Z,1.90
2022-10-02T12:27:10.654Z,1.58
2022-10-02T12:30:00.842Z,2.58
2022-10-02T12:32:53.101Z,2.42
2022-10-02T12:35:50.362Z,2.10
2022-10-02T12:38:35.230Z,2.35
2022-10-02T12:41:40.205Z,2.15
2022-10-02T12:44:32.759Z,1.80
2022-10-02T12:47:21.048Z,2.00
2022-10-02T12:49:47.701Z,1.83
2022-10-02T12:52:52.553Z,2.05
2022-10-02T12:55:44.134Z,2.08
2022-10-02T12:58:23.620Z,2.15
2022-10-02T13:01:03.374Z,2.25
2022-10-02T13:03:39.711Z,1.67
2022-10-02T13:06:51.195Z,1.80
2022-10-02T13:09:29.840Z,1.30
2022-10-02T13:12:12.950Z,2.13
2022-10-02T13:15:03.402Z,1.63
2022-10-02T13:20:05.179Z,1.63
2022-10-02T13:22:46.942Z,2.03
2022-10-02T13:25:36.732Z,1.85
2022-10-02T13:28:32.763Z,1.95
2022-10-02T13:31:36.917Z,1.90
2022-10-02T13:34:11.849Z,1.58
2022-10-02T13:37:02.428Z,2.08
2022-10-02T13:39:46.703Z,2.70
2022-10-02T13:42:42.463Z,1.63
2022-10-02T13:46:03.325Z,1.83
2022-10-02T13:49:19.768Z,1.52
2022-10-02T13:51:57.704Z,2.00
2022-10-02T13:54:32.730Z,2.00
2022-10-02T13:57:41.523Z,2.25
2022-10-02T14:00:24.063Z,2.05
2022-10-02T14:03:09.890Z,1.40
2022-10-02T14:05:48.469Z,1.52
2022-10-02T14:08:28.068Z,1.58
2022-10-02T14:11:03.728Z,1.87
2022-10-02T14:13:50.331Z,1.75
2022-10-02T14:16:25.987Z,1.90
2022-10-02T14:19:24.859Z,1.80
2022-10-02T14:22:09.523Z,2.03
2022-10-02T14:25:05.289Z,1.33
2022-10-02T14:27:55.335Z,2.00
2022-10-02T14:30:29.970Z,1.88
2022-10-02T14:33:39.640Z,2.08
2022-10-02T14:36:27.040Z,2.20
2022-10-02T14:39:10.239Z,1.90
2022-10-02T14:42:23.732Z,1.83
2022-10-02T14:45:27.355Z,3.17
2022-10-02T14:48:02.820Z,2.67
2022-10-02T14:50:45.577Z,1.83
2022-10-02T14:53:33.270Z,2.45
2022-10-02T14:56:38.807Z,2.20
2022-10-02T14:59:23.375Z,2.35
2022-10-02T15:02:18.346Z,2.28
2022-10-02T15:05:37.453Z,2.40
2022-10-02T15:08:30.615Z,2.40
2022-10-02T15:10:59.336Z,2.15
2022-10-02T15:13:44.798Z,2.58
2022-10-02T15:16:59.495Z,2.55
2022-10-02T15:20:03.030Z,2.20
2022-10-02T15:22:54.658Z,2.22
2022-10-02T15:25:30.268Z,2.85
2022-10-02T15:28:36.379Z,2.13
2022-10-02T15:31:35.990Z,2.13
2022-10-02T15:34:33.671Z,2.35
2022-10-02T15:37:03.325Z,2.25
2022-10-02T15:39:57.191Z,2.17
2022-10-02T15:42:56.165Z,1.63
2022-10-02T15:45:47.719Z,2.95
2022-10-02T15:48:52.772Z,2.10
2022-10-02T15:51:56.939Z,2.10
2022-10-02T15:54:36.006Z,1.70
2022-10-02T15:57:26.578Z,1.45
2022-10-02T16:00:15.785Z,1.85
2022-10-02T16:02:58.351Z,1.90
2022-10-02T16:05:43.302Z,1.92
2022-10-02T16:08:36.309Z,2.00
2022-10-02T16:11:33.023Z,3.03
2022-10-02T16:14:38.502Z,1.70
2022-10-02T16:17:31.875Z,1.95
2022-10-02T16:20:18.878Z,2.03
2022-10-02T16:22:57.876Z,2.40
2022-10-02T16:26:01.731Z,2.30
2022-10-02T16:28:43.718Z,2.22
2022-10-02T16:31:47.719Z,1.67
2022-10-02T16:34:39.515Z,2.38
2022-10-02T16:37:18.450Z,2.28
2022-10-02T16:39:55.633Z,2.28
2022-10-02T16:42:31.378Z,2.58
2022-10-02T16:45:22.082Z,2.88
2022-10-02T16:47:54.131Z,2.10
2022-10-02T16:50:55.694Z,2.38
2022-10-02T16:53:34.958Z,2.03
2022-10-02T16:56:13.860Z,2.50
2022-10-02T16:58:46.368Z,2.22
2022-10-02T17:01:22.387Z,2.00
2022-10-02T17:03:58.246Z,2.10
2022-10-02T17:06:32.578Z,2.08
2022-10-02T17:09:17.293Z,2.78
2022-10-02T17:12:20.343Z,2.00
2022-10-02T17:15:16.241Z,2.17
2022-10-02T17:18:09.987Z,2.15
2022-10-02T17:20:56.705Z,2.33
2022-10-02T17:23:41.798Z,3.15
2022-10-02T17:26:24.698Z,2.65
2022-10-02T17:29:42.466Z,2.20
2022-10-02T17:32:09.583Z,2.33
2022-10-02T17:34:49.163Z,2.13
2022-10-02T17:37:20.902Z,2.90
2022-10-02T17:40:05.806Z,3.05
2022-10-02T17:43:03.745Z,2.72
2022-10-02T17:45:45.653Z,2.63
2022-10-02T17:48:56.001Z,2.60
2022-10-02T17:51:56.416Z,3.47
2022-10-02T17:54:54.789Z,2.63
2022-10-02T17:57:31.058Z,2.90
2022-10-02T18:00:12.119Z,2.88
2022-10-02T18:03:03.887Z,2.75
2022-10-02T18:06:02.985Z,3.15
2022-10-02T18:08:45.377Z,3.08
2022-10-02T18:11:27.147Z,3.50
2022-10-02T18:14:35.861Z,4.07
2022-10-02T18:17:26.958Z,5.35
2022-10-02T18:20:28.129Z,5.07
2022-10-02T18:23:06.681Z,6.03
2022-10-02T18:25:36.564Z,7.43
2022-10-02T18:28:35.845Z,7.38
2022-10-02T18:31:22.784Z,7.07
2022-10-02T18:34:06.853Z,6.60
2022-10-02T18:36:52.534Z,6.72
2022-10-02T18:39:27.785Z,5.97
2022-10-02T18:41:56.058Z,5.45
2022-10-02T18:45:11.997Z,5.07
2022-10-02T18:48:10.265Z,4.30
2022-10-02T18:51:14.504Z,4.07
2022-10-02T18:54:05.165Z,4.18
2022-10-02T18:57:08.464Z,3.67
2022-10-02T18:59:38.057Z,4.63
2022-10-02T19:02:19.627Z,3.90
2022-10-02T19:05:22.603Z,4.63
2022-10-02T19:07:57.727Z,4.60
2022-10-02T19:10:40.287Z,3.70
2022-10-02T19:13:17.758Z,4.60
2022-10-02T19:15:47.237Z,4.38
2022-10-02T19:18:30.748Z,5.70
2022-10-02T19:21:06.624Z,6.82
2022-10-02T19:23:39.048Z,6.47
2022-10-02T19:26:27.917Z,8.15
2022-10-02T19:29:38.012Z,8.18
2022-10-02T19:32:31.156Z,7.15
2022-10-02T19:35:19.124Z,6.45
2022-10-02T19:37:49.279Z,4.18
2022-10-02T19:40:23.669Z,3.53
2022-10-02T19:42:55.399Z,3.08
2022-10-02T19:45:25.505Z,3.00
2022-10-02T19:48:00.404Z,3.30
2022-10-02T19:50:39.809Z,3.00
2022-10-02T19:53:24.829Z,3.47
2022-10-02T19:55:57.373Z,3.00
2022-10-02T19:58:32.648Z,2.85
2022-10-02T20:01:00.055Z,3.15
2022-10-02T20:03:27.471Z,3.50
2022-10-02T20:05:59.704Z,19.33
2022-10-02T20:08:30.656Z,11.77
2022-10-02T20:11:03.469Z,8.00
2022-10-02T20:13:46.779Z,5.00
2022-10-02T20:16:43.747Z,3.10
2022-10-02T20:19:27.483Z,4.22
2022-10-02T20:22:38.426Z,3.83
2022-10-02T20:25:30.199Z,3.05
2022-10-02T20:28:03.153Z,2.70
2022-10-02T20:30:40.837Z,2.58
2022-10-02T20:33:19.478Z,2.22
2022-10-02T20:35:52.078Z,2.40
2022-10-02T20:38:27.548Z,2.50
2022-10-02T20:40:57.145Z,2.58
2022-10-02T20:43:46.661Z,2.07
2022-10-02T20:46:47.677Z,2.53
2022-10-02T20:49:41.797Z,2.70
2022-10-02T20:52:34.493Z,2.78
2022-10-02T20:55:18.684Z,2.83
2022-10-02T20:58:03.441Z,2.78
2022-10-02T21:00:55.979Z,2.95
2022-10-02T21:03:42.539Z,3.20
2022-10-02T21:06:27.529Z,2.50
2022-10-02T21:09:03.275Z,2.60
2022-10-02T21:11:39.271Z,2.60
2022-10-02T21:14:10.012Z,2.28
2022-10-02T21:16:50.376Z,2.70
2022-10-02T21:19:54.333Z,2.35
2022-10-02T21:22:38.962Z,2.53
2022-10-02T21:25:18.237Z,2.65
2022-10-02T21:28:15.864Z,2.40
2022-10-02T21:31:04.121Z,2.10
2022-10-02T21:33:48.684Z,2.35
2022-10-02T21:36:29.544Z,2.55
2022-10-02T21:39:12.040Z,2.42
2022-10-02T21:42:17.575Z,2.10
2022-10-02T21:45:13.724Z,2.47
2022-10-02T21:48:06.449Z,1.77
2022-10-02T21:51:11.934Z,2.08
2022-10-02T21:53:44.425Z,2.25
2022-10-02T21:57:04.447Z,2.08
2022-10-02T21:59:45.081Z,2.15
2022-10-02T22:02:30.967Z,1.73
2022-10-02T22:05:13.158Z,1.80
2022-10-02T22:07:50.753Z,2.00
2022-10-02T22:10:49.265Z,2.28
2022-10-02T22:13:38.026Z,2.30
2022-10-02T22:16:26.730Z,2.53
2022-10-02T22:19:08.038Z,2.90
2022-10-02T22:22:07.776Z,2.47
2022-10-02T22:24:46.172Z,5.20
2022-10-02T22:27:33.878Z,4.25
2022-10-02T22:30:00.623Z,4.50
2022-10-02T22:33:10.855Z,5.35
2022-10-02T22:36:01.671Z,6.72
2022-10-02T22:38:36.626Z,14.50
2022-10-02T22:41:26.116Z,12.00
2022-10-02T22:44:16.999Z,7.45
2022-10-02T22:47:12.165Z,9.38
2022-10-02T22:49:48.110Z,6.13
2022-10-02T22:52:28.304Z,6.97
2022-10-02T22:55:09.872Z,6.05
2022-10-02T22:57:43.499Z,3.95
2022-10-02T23:00:16.569Z,4.28
2022-10-02T23:02:58.285Z,5.07
2022-10-02T23:05:35.126Z,2.88
2022-10-02T23:08:18.800Z,2.65
2022-10-02T23:10:55.049Z,3.10
2022-10-02T23:13:32.995Z,3.08
2022-10-02T23:16:28.202Z,2.42
2022-10-02T23:19:25.053Z,3.55
2022-10-02T23:22:07.920Z,3.30
2022-10-02T23:25:07.951Z,3.10
2022-10-02T23:28:15.592Z,2.70
2022-10-02T23:30:48.849Z,2.42
2022-10-02T23:33:35.494Z,2.20
2022-10-02T23:36:15.738Z,2.97
2022-10-02T23:38:53.530Z,2.60
2022-10-02T23:41:48.144Z,2.63
2022-10-02T23:44:37.039Z,2.10
2022-10-02T23:47:29.286Z,2.83
2022-10-02T23:49:58.345Z,2.30
2022-10-02T23:52:52.791Z,2.40
2022-10-02T23:55:34.536Z,2.72
2022-10-02T23:58:27.034Z,2.22
